createdAt,value
2017-10-05T00:01:54.565Z,87.60
2017-10-05T00:04:22.064Z,87.60
2017-10-05T00:06:49.551Z,87.30
2017-10-05T00:09:17.122Z,87.50
2017-10-05T00:11:44.623Z,87.60
2017-10-05T00:14:12.120Z,87.60
2017-10-05T00:16:39.615Z,87.60
2017-10-05T00:19:07.118Z,87.60
2017-10-05T00:21:35.418Z,87.50
2017-10-05T00:24:02.954Z,87.50
2017-10-05T00:26:30.462Z,87.30
2017-10-05T00:28:57.951Z,87.70
2017-10-05T00:31:25.545Z,87.70
2017-10-05T00:33:53.049Z,88.00
2017-10-05T00:36:20.546Z,88.00
2017-10-05T00:38:48.063Z,88.10
2017-10-05T00:41:15.583Z,88.00
2017-10-05T00:43:43.115Z,88.30
2017-10-05T00:46:10.633Z,88.30
2017-10-05T00:48:38.158Z,88.10
2017-10-05T00:51:05.687Z,88.20
2017-10-05T00:53:33.184Z,88.60
2017-10-05T00:56:01.477Z,88.50
2017-10-05T00:58:28.987Z,88.50
2017-10-05T01:00:56.499Z,88.40
2017-10-05T01:03:23.995Z,88.50
2017-10-05T01:05:51.508Z,88.40
2017-10-05T01:08:19.050Z,88.40
2017-10-05T01:10:47.323Z,88.60
2017-10-05T01:13:14.851Z,88.70
2017-10-05T01:15:43.135Z,88.60
2017-10-05T01:18:10.640Z,88.70
2017-10-05T01:20:38.171Z,89.00
2017-10-05T01:23:06.450Z,89.80
2017-10-05T01:25:33.964Z,89.00
2017-10-05T01:28:01.483Z,89.10
2017-10-05T01:30:29.761Z,89.40
2017-10-05T01:32:58.048Z,89.40
2017-10-05T01:35:25.579Z,89.30
2017-10-05T01:37:53.088Z,89.40
2017-10-05T01:40:20.655Z,89.60
2017-10-05T01:42:48.155Z,89.50
2017-10-05T01:45:15.679Z,89.70
2017-10-05T01:47:43.261Z,89.70
2017-10-05T01:50:10.814Z,89.90
2017-10-05T01:52:39.193Z,89.90
2017-10-05T01:55:06.692Z,89.80
2017-10-05T01:57:34.279Z,89.80
2017-10-05T02:00:01.785Z,89.70
2017-10-05T02:02:29.302Z,89.80
2017-10-05T02:04:56.798Z,89.80
2017-10-05T02:07:24.310Z,90.00
2017-10-05T02:09:51.817Z,90.30
2017-10-05T02:12:19.326Z,90.00
2017-10-05T02:14:46.821Z,90.10
2017-10-05T02:17:14.321Z,90.00
2017-10-05T02:19:42.587Z,90.30
2017-10-05T02:22:10.867Z,90.50
2017-10-05T02:24:39.120Z,90.40
2017-10-05T02:27:06.688Z,90.40
2017-10-05T02:29:34.214Z,90.50
2017-10-05T02:32:01.711Z,90.30
2017-10-05T02:34:29.226Z,90.40
2017-10-05T02:36:56.748Z,90.50
2017-10-05T02:39:24.240Z,90.50
2017-10-05T02:41:51.762Z,90.50
2017-10-05T02:44:20.036Z,90.70
2017-10-05T02:46:48.327Z,90.70
2017-10-05T02:49:16.600Z,90.70
2017-10-05T02:51:44.879Z,90.90
2017-10-05T02:54:13.165Z,91.10
2017-10-05T02:56:40.692Z,91.10
2017-10-05T02:59:08.214Z,91.40
2017-10-05T03:01:35.723Z,91.50
2017-10-05T03:04:03.999Z,91.60
2017-10-05T03:06:32.271Z,91.70
2017-10-05T03:09:00.544Z,91.80
2017-10-05T03:11:28.063Z,91.70
2017-10-05T03:13:55.583Z,91.80
2017-10-05T03:16:23.096Z,91.90
2017-10-05T03:18:50.626Z,92.10
2017-10-05T03:21:18.121Z,92.40
2017-10-05T03:23:45.624Z,92.70
2017-10-05T03:26:13.141Z,93.40
2017-10-05T03:28:40.656Z,94.50
2017-10-05T03:31:08.170Z,94.10
2017-10-05T03:33:35.662Z,94.80
2017-10-05T03:36:03.189Z,95.00
2017-10-05T03:38:30.701Z,95.00
2017-10-05T03:40:58.214Z,95.30
2017-10-05T03:43:25.749Z,95.80
2017-10-05T03:45:54.018Z,96.20
2017-10-05T03:48:21.528Z,96.20
2017-10-05T03:50:49.798Z,97.30
2017-10-05T03:53:18.095Z,97.90
2017-10-05T03:55:45.607Z,97.90
2017-10-05T03:58:13.121Z,98.10
2017-10-05T04:00:40.635Z,98.70
2017-10-05T04:03:08.148Z,98.60
2017-10-05T04:05:35.655Z,99.50
2017-10-05T04:08:03.158Z,99.60
2017-10-05T04:10:30.679Z,99.10
2017-10-05T04:12:58.953Z,99.40
2017-10-05T04:15:27.345Z,99.90
2017-10-05T04:17:54.852Z,99.90
2017-10-05T04:20:22.357Z,99.80
2017-10-05T04:22:50.623Z,99.90
2017-10-05T04:25:18.137Z,99.90
2017-10-05T04:27:45.656Z,99.90
2017-10-05T04:30:13.181Z,99.90
2017-10-05T04:32:40.686Z,99.90
2017-10-05T04:35:08.198Z,99.90
2017-10-05T04:37:35.720Z,99.90
2017-10-05T04:40:03.223Z,99.90
2017-10-05T04:42:30.739Z,99.90
2017-10-05T04:44:58.262Z,99.90
2017-10-05T04:47:25.761Z,99.90
2017-10-05T04:49:53.277Z,99.90
2017-10-05T04:52:21.608Z,99.90
2017-10-05T04:54:49.152Z,99.90
2017-10-05T04:57:16.715Z,99.90
2017-10-05T04:59:44.211Z,99.90
2017-10-05T05:02:11.796Z,99.90
2017-10-05T05:04:40.091Z,99.90
2017-10-05T05:07:08.387Z,99.90
2017-10-05T05:09:35.934Z,99.90
2017-10-05T05:12:03.456Z,99.90
2017-10-05T05:14:30.974Z,99.90
2017-10-05T05:16:58.484Z,99.90
2017-10-05T05:19:26.004Z,99.90
2017-10-05T05:21:53.533Z,99.90
2017-10-05T05:24:21.046Z,99.90
2017-10-05T05:26:48.563Z,99.90
2017-10-05T05:29:16.079Z,99.90
2017-10-05T05:31:43.635Z,99.90
2017-10-05T05:34:11.180Z,99.90
2017-10-05T05:36:38.733Z,99.90
2017-10-05T05:39:06.248Z,99.90
2017-10-05T05:41:33.814Z,99.90
2017-10-05T05:44:01.376Z,99.90
2017-10-05T05:46:28.917Z,99.90
2017-10-05T05:48:57.223Z,99.90
2017-10-05T05:51:24.760Z,99.90
2017-10-05T05:53:52.298Z,99.90
2017-10-05T05:56:19.852Z,99.90
2017-10-05T05:58:47.352Z,99.90
2017-10-05T06:01:14.861Z,99.90
2017-10-05T06:03:42.587Z,99.90
2017-10-05T06:06:10.129Z,99.90
2017-10-05T06:08:37.659Z,99.90
2017-10-05T06:11:05.952Z,99.90
2017-10-05T06:13:34.253Z,99.90
2017-10-05T06:16:01.768Z,99.90
2017-10-05T06:18:29.328Z,99.90
2017-10-05T06:20:56.936Z,99.90
2017-10-05T06:23:24.455Z,99.90
2017-10-05T06:25:52.740Z,99.90
2017-10-05T06:28:21.034Z,99.90
2017-10-05T06:30:48.534Z,99.90
2017-10-05T06:33:16.046Z,99.90
2017-10-05T06:35:43.932Z,99.90
2017-10-05T06:38:11.546Z,99.90
2017-10-05T06:40:39.062Z,99.90
2017-10-05T06:43:06.588Z,99.90
2017-10-05T06:45:34.860Z,99.90
2017-10-05T06:48:03.142Z,99.90
2017-10-05T06:50:31.437Z,99.90
2017-10-05T06:52:58.975Z,99.90
2017-10-05T06:55:27.241Z,99.90
2017-10-05T06:57:54.775Z,99.90
2017-10-05T07:00:22.288Z,99.90
2017-10-05T07:02:49.824Z,99.90
2017-10-05T07:05:17.354Z,99.90
2017-10-05T07:07:44.869Z,99.90
2017-10-05T07:10:12.381Z,99.90
2017-10-05T07:12:39.898Z,99.90
2017-10-05T07:15:07.421Z,99.90
2017-10-05T07:17:36.675Z,99.90
2017-10-05T07:20:04.188Z,99.90
2017-10-05T07:22:32.463Z,99.90
2017-10-05T07:25:00.793Z,99.90
2017-10-05T07:27:28.309Z,99.90
2017-10-05T07:29:55.827Z,99.90
2017-10-05T07:32:23.336Z,99.90
2017-10-05T07:34:50.845Z,99.90
2017-10-05T07:37:18.368Z,99.90
2017-10-05T07:39:45.872Z,99.90
2017-10-05T07:42:13.378Z,99.90
2017-10-05T07:44:40.891Z,99.90
2017-10-05T07:47:08.415Z,99.90
2017-10-05T07:49:36.001Z,99.90
2017-10-05T07:52:03.511Z,99.90
2017-10-05T07:54:31.006Z,99.90
2017-10-05T07:56:58.536Z,99.90
2017-10-05T07:59:26.052Z,99.90
2017-10-05T08:01:53.558Z,99.90
2017-10-05T08:04:21.138Z,99.90
2017-10-05T08:06:48.741Z,99.90
2017-10-05T08:09:17.168Z,99.90
2017-10-05T08:11:44.719Z,99.90
2017-10-05T08:14:12.288Z,99.90
2017-10-05T08:16:39.941Z,99.90
2017-10-05T08:19:07.456Z,99.90
2017-10-05T08:21:34.963Z,99.90
2017-10-05T08:24:02.462Z,99.90
2017-10-05T08:26:29.987Z,99.90
2017-10-05T08:28:57.496Z,99.90
2017-10-05T08:31:25.001Z,99.90
2017-10-05T08:33:52.500Z,99.90
2017-10-05T08:36:20.039Z,99.90
2017-10-05T08:38:48.320Z,99.90
2017-10-05T08:41:15.807Z,99.90
2017-10-05T08:43:43.313Z,99.90
2017-10-05T08:46:10.818Z,99.90
2017-10-05T08:48:38.325Z,99.90
2017-10-05T08:51:05.831Z,99.90
2017-10-05T08:53:34.179Z,99.90
2017-10-05T08:56:01.704Z,99.90
2017-10-05T08:58:29.290Z,99.90
2017-10-05T09:00:56.860Z,99.90
2017-10-05T09:03:24.362Z,99.90
2017-10-05T09:05:52.638Z,99.90
2017-10-05T09:08:20.151Z,99.90
2017-10-05T09:10:47.694Z,99.90
2017-10-05T09:13:15.268Z,99.90
2017-10-05T09:15:42.772Z,99.90
2017-10-05T09:18:10.295Z,99.90
2017-10-05T09:20:38.666Z,99.90
2017-10-05T09:23:06.176Z,99.90
2017-10-05T09:25:33.679Z,99.90
2017-10-05T09:28:01.201Z,99.90
2017-10-05T09:30:29.602Z,99.90
2017-10-05T09:32:57.098Z,99.90
2017-10-05T09:35:24.605Z,99.90
2017-10-05T09:37:52.876Z,99.90
2017-10-05T09:40:21.224Z,99.90
2017-10-05T09:42:48.726Z,99.90
2017-10-05T09:45:16.237Z,99.90
2017-10-05T09:47:43.761Z,99.90
2017-10-05T09:50:11.295Z,99.90
2017-10-05T09:52:38.804Z,99.90
2017-10-05T09:55:06.365Z,99.90
2017-10-05T09:57:33.904Z,99.90
2017-10-05T10:00:01.456Z,99.90
2017-10-05T10:02:28.978Z,99.90
2017-10-05T10:04:56.480Z,99.90
2017-10-05T10:07:23.983Z,99.90
2017-10-05T10:09:51.614Z,99.90
2017-10-05T10:12:19.134Z,99.90
2017-10-05T10:14:47.447Z,99.90
2017-10-05T10:17:14.952Z,99.90
2017-10-05T10:19:42.456Z,99.90
2017-10-05T10:22:09.955Z,99.90
2017-10-05T10:24:37.468Z,99.90
2017-10-05T10:27:04.975Z,99.90
2017-10-05T10:29:32.496Z,99.90
2017-10-05T10:31:59.996Z,99.90
2017-10-05T10:34:27.650Z,99.90
2017-10-05T10:36:55.151Z,99.90
2017-10-05T10:39:23.428Z,99.90
2017-10-05T10:41:51.746Z,99.90
2017-10-05T10:44:19.251Z,99.90
2017-10-05T10:46:46.772Z,99.90
2017-10-05T10:49:14.274Z,99.90
2017-10-05T10:51:43.374Z,99.90
2017-10-05T10:54:11.674Z,99.90
2017-10-05T10:56:39.207Z,99.90
2017-10-05T10:59:06.750Z,99.90
2017-10-05T11:01:34.405Z,99.90
2017-10-05T11:04:01.913Z,99.90
2017-10-05T11:06:29.421Z,99.90
2017-10-05T11:08:56.936Z,99.90
2017-10-05T11:11:24.598Z,99.90
2017-10-05T11:13:52.115Z,99.90
2017-10-05T11:16:19.682Z,99.90
2017-10-05T11:18:47.213Z,99.90
2017-10-05T11:21:14.720Z,99.90
2017-10-05T11:23:43.020Z,99.90
2017-10-05T11:26:10.524Z,99.90
2017-10-05T11:28:38.054Z,99.90
2017-10-05T11:31:05.581Z,99.90
2017-10-05T11:33:33.092Z,99.90
2017-10-05T11:36:00.589Z,99.90
2017-10-05T11:38:28.094Z,99.90
2017-10-05T11:40:55.625Z,99.90
2017-10-05T11:43:23.129Z,99.90
2017-10-05T11:45:50.653Z,99.90
2017-10-05T11:48:18.159Z,99.90
2017-10-05T11:50:45.665Z,99.90
2017-10-05T11:53:13.187Z,99.90
2017-10-05T11:55:40.702Z,99.90
2017-10-05T11:58:08.202Z,99.90
2017-10-05T12:00:36.535Z,99.90
2017-10-05T12:03:04.048Z,99.90
2017-10-05T12:05:31.557Z,99.90
2017-10-05T12:07:59.135Z,99.90
2017-10-05T12:10:26.653Z,99.90
2017-10-05T12:12:54.304Z,99.90
2017-10-05T12:15:21.810Z,99.90
2017-10-05T12:17:49.369Z,99.90
2017-10-05T12:20:16.886Z,99.90
2017-10-05T12:22:44.394Z,99.90
2017-10-05T12:25:11.896Z,99.90
2017-10-05T12:27:40.175Z,99.90
2017-10-05T12:30:07.888Z,99.90
2017-10-05T12:32:35.425Z,99.90
2017-10-05T12:35:02.948Z,99.90
2017-10-05T12:37:31.225Z,99.90
2017-10-05T12:39:59.527Z,99.90
2017-10-05T12:42:27.024Z,99.90
2017-10-05T12:44:54.533Z,99.90
2017-10-05T12:47:22.074Z,99.90
2017-10-05T12:49:50.361Z,99.90
2017-10-05T12:52:18.647Z,99.90
2017-10-05T12:54:46.192Z,99.90
2017-10-05T12:57:14.560Z,99.90
2017-10-05T12:59:42.897Z,99.90
2017-10-05T13:02:10.449Z,99.90
2017-10-05T13:04:37.998Z,99.90
2017-10-05T13:07:05.559Z,99.90
2017-10-05T13:09:33.086Z,99.90
2017-10-05T13:12:01.388Z,99.90
2017-10-05T13:14:28.942Z,99.90
2017-10-05T13:16:56.451Z,99.90
2017-10-05T13:19:23.982Z,99.90
2017-10-05T13:21:51.533Z,99.90
2017-10-05T13:24:19.022Z,99.90
2017-10-05T13:26:46.523Z,99.90
2017-10-05T13:29:15.120Z,99.90
2017-10-05T13:31:42.644Z,99.90
2017-10-05T13:34:10.159Z,99.90
2017-10-05T13:36:37.692Z,99.90
2017-10-05T13:39:05.218Z,99.90
2017-10-05T13:41:32.719Z,99.90
2017-10-05T13:44:00.218Z,99.90
2017-10-05T13:46:27.788Z,99.90
2017-10-05T13:48:55.310Z,99.90
2017-10-05T13:51:22.818Z,99.90
2017-10-05T13:53:50.397Z,99.90
2017-10-05T13:56:18.682Z,99.90
2017-10-05T13:58:47.038Z,99.90
2017-10-05T14:01:14.556Z,99.90
2017-10-05T14:03:42.182Z,99.90
2017-10-05T14:06:09.714Z,99.90
2017-10-05T14:08:37.242Z,99.90
2017-10-05T14:11:04.763Z,99.90
2017-10-05T14:13:32.269Z,99.90
2017-10-05T14:15:59.768Z,99.90
2017-10-05T14:18:28.044Z,99.90
2017-10-05T14:20:56.336Z,99.90
2017-10-05T14:23:24.617Z,99.90
2017-10-05T14:25:52.127Z,99.90
2017-10-05T14:28:19.637Z,99.90
2017-10-05T14:30:47.167Z,99.90
2017-10-05T14:33:14.669Z,99.90
2017-10-05T14:35:42.174Z,99.90
2017-10-05T14:38:09.675Z,99.90
2017-10-05T14:40:37.181Z,99.90
2017-10-05T14:43:04.690Z,99.90
2017-10-05T14:45:32.184Z,99.90
2017-10-05T14:47:59.711Z,99.90
2017-10-05T14:50:26.791Z,99.90
2017-10-05T14:52:53.861Z,99.90
2017-10-05T14:55:20.947Z,99.90
2017-10-05T14:57:49.202Z,99.90
2017-10-05T15:00:16.742Z,99.90
2017-10-05T15:02:44.250Z,99.90
2017-10-05T15:05:11.755Z,99.50
2017-10-05T15:07:39.268Z,98.70
2017-10-05T15:10:06.785Z,98.40
2017-10-05T15:12:34.300Z,98.40
2017-10-05T15:15:01.800Z,97.80
2017-10-05T15:17:29.319Z,97.10
2017-10-05T15:19:56.876Z,96.90
2017-10-05T15:22:24.384Z,95.90
2017-10-05T15:24:51.903Z,95.00
2017-10-05T15:27:19.437Z,94.70
2017-10-05T15:29:46.963Z,94.00
2017-10-05T15:32:14.801Z,94.20
2017-10-05T15:34:41.879Z,94.20
2017-10-05T15:37:09.746Z,94.20
2017-10-05T15:39:36.824Z,94.10
2017-10-05T15:42:05.124Z,94.10
2017-10-05T15:44:32.659Z,94.00
2017-10-05T15:47:00.178Z,93.10
2017-10-05T15:49:27.701Z,92.80
2017-10-05T15:51:55.226Z,93.40
2017-10-05T15:54:22.727Z,93.70
2017-10-05T15:56:50.236Z,93.70
2017-10-05T15:59:17.756Z,93.80
2017-10-05T16:01:45.263Z,94.40
2017-10-05T16:04:12.812Z,94.80
2017-10-05T16:06:40.369Z,94.80
2017-10-05T16:09:07.926Z,95.00
2017-10-05T16:11:35.434Z,95.90
2017-10-05T16:14:03.488Z,95.70
2017-10-05T16:16:31.017Z,95.80
2017-10-05T16:18:58.577Z,96.40
2017-10-05T16:21:26.784Z,97.30
2017-10-05T16:23:53.917Z,97.10
2017-10-05T16:26:20.975Z,97.30
2017-10-05T16:28:48.842Z,97.70
2017-10-05T16:31:16.735Z,98.60
2017-10-05T16:33:43.812Z,98.60
2017-10-05T16:36:10.944Z,97.30
2017-10-05T16:38:37.985Z,96.90
2017-10-05T16:41:05.086Z,97.10
2017-10-05T16:43:32.194Z,96.80
2017-10-05T16:45:59.244Z,96.50
2017-10-05T16:48:27.043Z,96.30
2017-10-05T16:50:54.920Z,96.90
2017-10-05T16:53:22.058Z,96.90
2017-10-05T16:55:49.117Z,97.00
2017-10-05T16:58:16.188Z,96.90
2017-10-05T17:00:44.005Z,97.00
2017-10-05T17:03:11.101Z,97.00
2017-10-05T17:05:38.181Z,97.20
2017-10-05T17:08:05.230Z,97.30
2017-10-05T17:10:32.442Z,97.60
2017-10-05T17:13:00.504Z,97.90
2017-10-05T17:15:27.566Z,97.90
2017-10-05T17:17:54.660Z,98.10
2017-10-05T17:20:21.730Z,98.00
2017-10-05T17:22:48.790Z,98.20
2017-10-05T17:25:15.914Z,98.20
2017-10-05T17:27:42.981Z,98.50
2017-10-05T17:30:10.056Z,98.60
2017-10-05T17:32:37.110Z,99.20
2017-10-05T17:35:04.183Z,98.30
2017-10-05T17:37:31.238Z,98.20
2017-10-05T17:39:58.491Z,98.00
2017-10-05T17:42:25.579Z,98.20
2017-10-05T17:44:52.649Z,98.20
2017-10-05T17:47:19.733Z,97.90
2017-10-05T17:49:46.782Z,98.10
2017-10-05T17:52:13.851Z,97.70
2017-10-05T17:54:40.911Z,97.60
2017-10-05T17:57:08.027Z,97.80
2017-10-05T17:59:35.636Z,97.80
2017-10-05T18:02:02.756Z,97.80
2017-10-05T18:04:29.824Z,98.00
2017-10-05T18:06:56.918Z,97.90
2017-10-05T18:09:24.053Z,97.20
2017-10-05T18:11:51.111Z,97.30
2017-10-05T18:14:18.352Z,97.40
2017-10-05T18:16:45.427Z,97.20
2017-10-05T18:19:12.901Z,97.30
2017-10-05T18:21:40.153Z,97.40
2017-10-05T18:24:07.216Z,97.40
2017-10-05T18:26:34.317Z,97.20
2017-10-05T18:29:04.424Z,97.20
2017-10-05T18:31:32.292Z,97.50
2017-10-05T18:33:59.422Z,97.50
2017-10-05T18:36:26.492Z,97.40
2017-10-05T18:38:56.646Z,97.50
2017-10-05T18:41:24.219Z,97.60
2017-10-05T18:43:51.307Z,97.60
2017-10-05T18:46:18.412Z,97.50
2017-10-05T18:48:45.487Z,97.40
2017-10-05T18:51:12.611Z,97.50
2017-10-05T18:53:39.693Z,97.40
2017-10-05T18:56:06.749Z,97.50
2017-10-05T18:58:34.151Z,97.30
2017-10-05T19:01:01.322Z,97.20
2017-10-05T19:03:28.391Z,97.50
2017-10-05T19:05:55.463Z,97.50
2017-10-05T19:08:22.880Z,97.60
2017-10-05T19:10:49.950Z,97.70
2017-10-05T19:13:17.044Z,97.80
2017-10-05T19:15:44.905Z,97.80
2017-10-05T19:18:12.743Z,98.00
2017-10-05T19:20:39.971Z,97.90
2017-10-05T19:23:07.020Z,97.90
2017-10-05T19:25:34.113Z,98.00
2017-10-05T19:28:02.002Z,98.60
2017-10-05T19:30:29.825Z,98.30
2017-10-05T19:32:56.889Z,98.20
2017-10-05T19:35:23.997Z,98.40
2017-10-05T19:37:51.076Z,98.50
2017-10-05T19:40:18.182Z,98.50
2017-10-05T19:42:45.260Z,98.60
2017-10-05T19:45:12.624Z,98.80
2017-10-05T19:47:40.206Z,98.90
2017-10-05T19:50:08.142Z,99.00
2017-10-05T19:52:36.018Z,99.10
2017-10-05T19:55:03.146Z,99.20
2017-10-05T19:57:30.211Z,99.30
2017-10-05T19:59:57.266Z,99.50
2017-10-05T20:02:25.140Z,99.60
2017-10-05T20:04:52.229Z,99.60
2017-10-05T20:07:20.066Z,99.70
2017-10-05T20:09:47.146Z,99.70
2017-10-05T20:12:14.994Z,99.80
2017-10-05T20:14:48.691Z,99.90
2017-10-05T20:17:19.289Z,99.90
2017-10-05T20:19:47.033Z,99.80
2017-10-05T20:22:19.953Z,99.90
2017-10-05T20:25:02.820Z,99.80
2017-10-05T20:27:33.006Z,99.70
2017-10-05T20:30:00.076Z,99.60
2017-10-05T20:32:28.066Z,99.90
2017-10-05T20:34:55.145Z,99.80
2017-10-05T20:37:22.263Z,99.70
2017-10-05T20:39:49.392Z,99.60
2017-10-05T20:42:17.256Z,99.60
2017-10-05T20:44:46.100Z,99.50
2017-10-05T20:47:13.163Z,99.40
2017-10-05T20:49:40.276Z,99.40
2017-10-05T20:52:07.351Z,99.50
2017-10-05T20:54:34.489Z,99.40
2017-10-05T20:57:01.559Z,99.00
2017-10-05T20:59:28.665Z,98.90
2017-10-05T21:01:56.531Z,99.10
2017-10-05T21:04:23.653Z,99.50
2017-10-05T21:06:50.718Z,99.10
2017-10-05T21:09:24.182Z,99.00
2017-10-05T21:11:51.306Z,99.00
2017-10-05T21:14:18.370Z,99.10
2017-10-05T21:16:45.455Z,99.20
2017-10-05T21:19:12.507Z,99.20
2017-10-05T21:21:39.566Z,99.40
2017-10-05T21:24:06.746Z,99.30
2017-10-05T21:26:33.818Z,99.40
2017-10-05T21:29:00.888Z,99.20
2017-10-05T21:31:28.267Z,99.30
2017-10-05T21:33:56.113Z,99.30
2017-10-05T21:36:23.213Z,99.30
2017-10-05T21:38:50.304Z,99.30
2017-10-05T21:41:17.405Z,99.40
2017-10-05T21:43:44.499Z,99.40
2017-10-05T21:46:12.635Z,99.50
2017-10-05T21:48:39.739Z,99.50
2017-10-05T21:51:06.808Z,99.50
2017-10-05T21:53:34.498Z,99.80
2017-10-05T21:56:01.611Z,99.70
2017-10-05T21:58:29.463Z,99.70
2017-10-05T22:00:56.550Z,99.60
2017-10-05T22:03:23.601Z,99.60
2017-10-05T22:05:50.679Z,99.70
2017-10-05T22:08:17.746Z,99.70
2017-10-05T22:10:44.866Z,99.90
2017-10-05T22:13:11.972Z,99.90
2017-10-05T22:15:39.798Z,99.90
2017-10-05T22:18:07.655Z,99.90
2017-10-05T22:20:34.728Z,99.90
2017-10-05T22:23:02.560Z,99.90
2017-10-05T22:25:29.608Z,99.90
2017-10-05T22:27:56.672Z,99.90
2017-10-05T22:30:23.727Z,99.90
2017-10-05T22:32:50.788Z,99.90
2017-10-05T22:35:17.842Z,99.90
2017-10-05T22:37:44.908Z,99.90
2017-10-05T22:40:12.755Z,99.90
2017-10-05T22:42:39.852Z,99.90
2017-10-05T22:45:06.924Z,99.90
2017-10-05T22:47:33.985Z,99.90
2017-10-05T22:50:01.035Z,99.90
2017-10-05T22:52:28.127Z,99.90
2017-10-05T22:54:55.183Z,99.90
2017-10-05T22:57:23.018Z,99.90
2017-10-05T22:59:50.104Z,99.90
2017-10-05T23:02:17.172Z,99.90
2017-10-05T23:04:44.244Z,99.90
2017-10-05T23:07:11.296Z,99.90
2017-10-05T23:09:38.342Z,99.90
2017-10-05T23:12:05.418Z,99.90
2017-10-05T23:14:32.492Z,99.90
2017-10-05T23:16:59.559Z,99.90
2017-10-05T23:19:26.618Z,99.90
2017-10-05T23:21:53.685Z,99.90
2017-10-05T23:24:20.739Z,99.90
2017-10-05T23:26:47.787Z,99.90
2017-10-05T23:29:14.862Z,99.90
2017-10-05T23:31:41.928Z,99.90
2017-10-05T23:34:08.979Z,99.90
2017-10-05T23:36:36.849Z,99.90
2017-10-05T23:39:03.936Z,99.90
2017-10-05T23:41:31.019Z,99.90
2017-10-05T23:43:58.072Z,99.90
2017-10-05T23:46:25.133Z,99.90
2017-10-05T23:48:53.037Z,99.90
2017-10-05T23:51:20.119Z,99.90
2017-10-05T23:53:47.180Z,99.90
2017-10-05T23:56:14.239Z,99.90
2017-10-05T23:58:41.329Z,99.90
